sensor_id;sensor_type;location;lat;lon;timestamp;pressure;altitude;pressure_sealevel;temperature;humidity
79075;BME280;68476;42.710;23.388;2023-05-27T00:01:44;95703.44;;;12.10;94.74
79075;BME280;68476;42.710;23.388;2023-05-27T00:04:09;95688.97;;;12.09;95.48
79075;BME280;68476;42.710;23.388;2023-05-27T00:06:35;95694.69;;;12.20;95.69
79075;BME280;68476;42.710;23.388;2023-05-27T00:09:01;95703.69;;;12.20;95.33
79075;BME280;68476;42.710;23.388;2023-05-27T00:11:26;95700.75;;;12.22;94.82
79075;BME280;68476;42.710;23.388;2023-05-27T00:13:52;95704.19;;;12.29;94.95
79075;BME280;68476;42.710;23.388;2023-05-27T00:16:17;95703.94;;;12.30;93.67
79075;BME280;68476;42.710;23.388;2023-05-27T00:18:42;95704.66;;;12.26;93.49
79075;BME280;68476;42.710;23.388;2023-05-27T00:21:08;95696.94;;;12.23;93.75
79075;BME280;68476;42.710;23.388;2023-05-27T00:23:33;95688.97;;;12.21;93.99
79075;BME280;68476;42.710;23.388;2023-05-27T00:25:59;95681.94;;;12.13;93.78
79075;BME280;68476;42.710;23.388;2023-05-27T00:28:24;95679.81;;;12.15;94.01
79075;BME280;68476;42.710;23.388;2023-05-27T00:30:54;95683.03;;;12.12;94.21
79075;BME280;68476;42.710;23.388;2023-05-27T00:33:19;95682.06;;;12.07;94.55
79075;BME280;68476;42.710;23.388;2023-05-27T00:35:46;95672.81;;;12.08;94.91
79075;BME280;68476;42.710;23.388;2023-05-27T00:38:11;95678.03;;;12.21;93.67
79075;BME280;68476;42.710;23.388;2023-05-27T00:40:39;95672.47;;;12.28;92.01
79075;BME280;68476;42.710;23.388;2023-05-27T00:43:04;95662.13;;;12.30;91.11
79075;BME280;68476;42.710;23.388;2023-05-27T00:45:30;95665.56;;;12.37;90.40
79075;BME280;68476;42.710;23.388;2023-05-27T00:47:56;95659.03;;;12.38;90.73
79075;BME280;68476;42.710;23.388;2023-05-27T00:50:22;95659.97;;;12.44;89.52
79075;BME280;68476;42.710;23.388;2023-05-27T00:52:50;95658.69;;;12.46;88.68
79075;BME280;68476;42.710;23.388;2023-05-27T00:55:16;95657.38;;;12.49;88.36
79075;BME280;68476;42.710;23.388;2023-05-27T00:57:42;95655.97;;;12.46;88.85
79075;BME280;68476;42.710;23.388;2023-05-27T01:00:08;95660.94;;;12.49;89.71
79075;BME280;68476;42.710;23.388;2023-05-27T01:02:37;95656.31;;;12.50;89.71
79075;BME280;68476;42.710;23.388;2023-05-27T01:05:06;95643.94;;;12.47;89.75
79075;BME280;68476;42.710;23.388;2023-05-27T01:08:03;95646.44;;;12.49;89.35
79075;BME280;68476;42.710;23.388;2023-05-27T01:10:38;95638.13;;;12.44;90.23
79075;BME280;68476;42.710;23.388;2023-05-27T01:15:51;95628.63;;;12.46;90.68
79075;BME280;68476;42.710;23.388;2023-05-27T01:18:18;95631.94;;;12.48;90.49
79075;BME280;68476;42.710;23.388;2023-05-27T01:20:47;95626.47;;;12.48;90.90
79075;BME280;68476;42.710;23.388;2023-05-27T01:23:13;95622.06;;;12.47;91.31
79075;BME280;68476;42.710;23.388;2023-05-27T01:25:38;95621.59;;;12.51;90.38
79075;BME280;68476;42.710;23.388;2023-05-27T01:28:04;95620.53;;;12.52;90.28
79075;BME280;68476;42.710;23.388;2023-05-27T01:30:29;95621.13;;;12.54;89.79
79075;BME280;68476;42.710;23.388;2023-05-27T01:33:08;95613.53;;;12.56;89.69
79075;BME280;68476;42.710;23.388;2023-05-27T01:35:44;95608.53;;;12.53;90.05
79075;BME280;68476;42.710;23.388;2023-05-27T01:38:14;95604.97;;;12.40;92.60
79075;BME280;68476;42.710;23.388;2023-05-27T01:40:41;95603.34;;;12.15;94.37
79075;BME280;68476;42.710;23.388;2023-05-27T01:43:09;95593.94;;;12.11;95.36
79075;BME280;68476;42.710;23.388;2023-05-27T01:45:34;95593.94;;;12.11;94.83
79075;BME280;68476;42.710;23.388;2023-05-27T01:48:00;95595.50;;;12.07;94.66
79075;BME280;68476;42.710;23.388;2023-05-27T01:50:26;95601.91;;;12.01;93.83
79075;BME280;68476;42.710;23.388;2023-05-27T01:52:52;95606.16;;;11.97;94.45
79075;BME280;68476;42.710;23.388;2023-05-27T01:55:17;95600.69;;;11.97;93.61
79075;BME280;68476;42.710;23.388;2023-05-27T01:57:43;95602.84;;;11.95;94.29
79075;BME280;68476;42.710;23.388;2023-05-27T02:00:09;95607.19;;;11.84;94.58
79075;BME280;68476;42.710;23.388;2023-05-27T02:02:35;95611.72;;;11.78;94.49
79075;BME280;68476;42.710;23.388;2023-05-27T02:05:02;95607.56;;;11.76;95.12
79075;BME280;68476;42.710;23.388;2023-05-27T02:07:27;95608.63;;;11.75;95.12
79075;BME280;68476;42.710;23.388;2023-05-27T02:09:53;95611.00;;;11.71;95.25
79075;BME280;68476;42.710;23.388;2023-05-27T02:12:18;95610.84;;;11.66;95.72
79075;BME280;68476;42.710;23.388;2023-05-27T02:14:44;95606.47;;;11.65;96.10
79075;BME280;68476;42.710;23.388;2023-05-27T02:17:10;95607.91;;;11.67;96.30
79075;BME280;68476;42.710;23.388;2023-05-27T02:19:36;95604.94;;;11.69;96.42
79075;BME280;68476;42.710;23.388;2023-05-27T02:22:01;95606.84;;;11.68;96.28
79075;BME280;68476;42.710;23.388;2023-05-27T02:24:27;95609.34;;;11.70;96.60
79075;BME280;68476;42.710;23.388;2023-05-27T02:26:53;95608.28;;;11.71;96.49
79075;BME280;68476;42.710;23.388;2023-05-27T02:29:18;95611.59;;;11.73;96.83
79075;BME280;68476;42.710;23.388;2023-05-27T02:31:43;95611.81;;;11.71;96.67
79075;BME280;68476;42.710;23.388;2023-05-27T02:34:09;95612.66;;;11.72;97.19
79075;BME280;68476;42.710;23.388;2023-05-27T02:36:34;95612.41;;;11.74;96.83
79075;BME280;68476;42.710;23.388;2023-05-27T02:39:00;95611.72;;;11.78;96.96
79075;BME280;68476;42.710;23.388;2023-05-27T02:41:25;95618.47;;;11.76;96.77
79075;BME280;68476;42.710;23.388;2023-05-27T02:43:51;95618.72;;;11.74;96.64
79075;BME280;68476;42.710;23.388;2023-05-27T02:46:17;95615.41;;;11.72;96.60
79075;BME280;68476;42.710;23.388;2023-05-27T02:48:43;95609.59;;;11.68;97.36
79075;BME280;68476;42.710;23.388;2023-05-27T02:51:08;95604.47;;;11.72;97.50
79075;BME280;68476;42.710;23.388;2023-05-27T02:53:33;95609.34;;;11.70;97.20
79075;BME280;68476;42.710;23.388;2023-05-27T02:55:59;95607.91;;;11.67;97.25
79075;BME280;68476;42.710;23.388;2023-05-27T02:58:24;95607.22;;;11.72;97.12
79075;BME280;68476;42.710;23.388;2023-05-27T03:00:50;95603.88;;;11.70;97.04
79075;BME280;68476;42.710;23.388;2023-05-27T03:03:15;95597.94;;;11.73;97.73
79075;BME280;68476;42.710;23.388;2023-05-27T03:05:40;95597.34;;;11.71;97.00
79075;BME280;68476;42.710;23.388;2023-05-27T03:08:06;95599.72;;;11.79;96.92
79075;BME280;68476;42.710;23.388;2023-05-27T03:10:32;95593.81;;;11.82;96.64
79075;BME280;68476;42.710;23.388;2023-05-27T03:12:58;95601.75;;;11.84;96.53
79075;BME280;68476;42.710;23.388;2023-05-27T03:15:23;95604.00;;;11.87;96.42
79075;BME280;68476;42.710;23.388;2023-05-27T03:17:49;95603.28;;;11.92;96.28
79075;BME280;68476;42.710;23.388;2023-05-27T03:20:14;95620.88;;;11.96;96.00
79075;BME280;68476;42.710;23.388;2023-05-27T03:22:42;95608.69;;;11.98;96.03
79075;BME280;68476;42.710;23.388;2023-05-27T03:25:07;95609.53;;;11.99;96.24
79075;BME280;68476;42.710;23.388;2023-05-27T03:27:33;95614.50;;;12.02;96.33
79075;BME280;68476;42.710;23.388;2023-05-27T03:29:58;95611.88;;;12.07;95.91
79075;BME280;68476;42.710;23.388;2023-05-27T03:32:24;95615.22;;;12.09;95.41
79075;BME280;68476;42.710;23.388;2023-05-27T03:34:49;95614.72;;;12.12;95.72
79075;BME280;68476;42.710;23.388;2023-05-27T03:37:15;95626.38;;;12.20;95.28
79075;BME280;68476;42.710;23.388;2023-05-27T03:39:40;95633.63;;;12.26;94.83
79075;BME280;68476;42.710;23.388;2023-05-27T03:42:06;95630.28;;;12.36;94.60
79075;BME280;68476;42.710;23.388;2023-05-27T03:44:32;95622.44;;;12.39;94.73
79075;BME280;68476;42.710;23.388;2023-05-27T03:46:57;95632.31;;;12.28;94.57
79075;BME280;68476;42.710;23.388;2023-05-27T03:49:23;95631.13;;;12.24;94.80
79075;BME280;68476;42.710;23.388;2023-05-27T03:51:48;95618.91;;;12.15;95.18
79075;BME280;68476;42.710;23.388;2023-05-27T03:54:14;95621.75;;;12.20;94.63
79075;BME280;68476;42.710;23.388;2023-05-27T03:56:39;95628.75;;;12.28;94.57
79075;BME280;68476;42.710;23.388;2023-05-27T03:59:05;95634.81;;;12.30;94.59
79075;BME280;68476;42.710;23.388;2023-05-27T04:01:31;95631.09;;;12.36;94.20
79075;BME280;68476;42.710;23.388;2023-05-27T04:03:57;95628.16;;;12.38;93.85
79075;BME280;68476;42.710;23.388;2023-05-27T04:06:22;95631.09;;;12.36;94.16
79075;BME280;68476;42.710;23.388;2023-05-27T04:08:48;95630.66;;;12.39;94.32
79075;BME280;68476;42.710;23.388;2023-05-27T04:11:13;95631.00;;;12.43;93.99
79075;BME280;68476;42.710;23.388;2023-05-27T04:13:39;95636.59;;;12.48;94.28
79075;BME280;68476;42.710;23.388;2023-05-27T04:16:05;95627.91;;;12.51;93.81
79075;BME280;68476;42.710;23.388;2023-05-27T04:18:30;95626.13;;;12.57;93.31
79075;BME280;68476;42.710;23.388;2023-05-27T04:20:56;95624.94;;;12.53;93.13
79075;BME280;68476;42.710;23.388;2023-05-27T04:23:23;95627.28;;;12.61;92.80
79075;BME280;68476;42.710;23.388;2023-05-27T04:25:48;95634.84;;;12.83;92.32
79075;BME280;68476;42.710;23.388;2023-05-27T04:28:15;95627.09;;;12.91;91.37
79075;BME280;68476;42.710;23.388;2023-05-27T04:30:41;95630.56;;;12.87;91.47
79075;BME280;68476;42.710;23.388;2023-05-27T04:33:06;95634.91;;;13.00;91.25
79075;BME280;68476;42.710;23.388;2023-05-27T04:35:33;95634.22;;;13.04;90.60
79075;BME280;68476;42.710;23.388;2023-05-27T04:37:58;95634.56;;;12.96;91.21
79075;BME280;68476;42.710;23.388;2023-05-27T04:40:26;95629.97;;;12.85;91.68
79075;BME280;68476;42.710;23.388;2023-05-27T04:42:52;95632.03;;;12.77;91.81
79075;BME280;68476;42.710;23.388;2023-05-27T04:45:17;95635.44;;;12.85;91.99
79075;BME280;68476;42.710;23.388;2023-05-27T04:47:43;95640.31;;;12.83;91.97
79075;BME280;68476;42.710;23.388;2023-05-27T04:50:10;95636.38;;;12.90;91.69
79075;BME280;68476;42.710;23.388;2023-05-27T04:52:36;95630.44;;;12.93;91.82
79075;BME280;68476;42.710;23.388;2023-05-27T04:55:07;95629.69;;;12.98;91.52
79075;BME280;68476;42.710;23.388;2023-05-27T04:57:33;95630.28;;;13.00;91.20
79075;BME280;68476;42.710;23.388;2023-05-27T04:59:59;95631.06;;;13.13;90.47
79075;BME280;68476;42.710;23.388;2023-05-27T05:02:27;95632.16;;;13.12;90.74
79075;BME280;68476;42.710;23.388;2023-05-27T05:05:01;95626.53;;;13.18;90.74
79075;BME280;68476;42.710;23.388;2023-05-27T05:07:27;95633.03;;;13.29;90.23
79075;BME280;68476;42.710;23.388;2023-05-27T05:09:52;95636.34;;;13.31;90.68
79075;BME280;68476;42.710;23.388;2023-05-27T05:12:18;95639.94;;;13.32;90.22
79075;BME280;68476;42.710;23.388;2023-05-27T05:14:43;95638.22;;;13.43;90.51
79075;BME280;68476;42.710;23.388;2023-05-27T05:17:09;95637.44;;;13.59;89.06
79075;BME280;68476;42.710;23.388;2023-05-27T05:19:34;95636.44;;;13.65;88.80
79075;BME280;68476;42.710;23.388;2023-05-27T05:21:59;95646.28;;;13.78;87.45
79075;BME280;68476;42.710;23.388;2023-05-27T05:24:25;95649.59;;;13.80;87.48
79075;BME280;68476;42.710;23.388;2023-05-27T05:26:50;95645.63;;;14.05;87.98
79075;BME280;68476;42.710;23.388;2023-05-27T05:29:16;95648.91;;;14.07;85.78
79075;BME280;68476;42.710;23.388;2023-05-27T05:31:41;95645.53;;;14.00;86.43
79075;BME280;68476;42.710;23.388;2023-05-27T05:34:06;95648.59;;;14.03;85.98
79075;BME280;68476;42.710;23.388;2023-05-27T05:36:33;95647.25;;;14.06;85.97
79075;BME280;68476;42.710;23.388;2023-05-27T05:38:58;95655.47;;;14.06;84.85
79075;BME280;68476;42.710;23.388;2023-05-27T05:41:23;95660.91;;;14.18;85.28
79075;BME280;68476;42.710;23.388;2023-05-27T05:43:49;95655.84;;;14.10;85.63
79075;BME280;68476;42.710;23.388;2023-05-27T05:46:14;95658.00;;;14.08;85.84
79075;BME280;68476;42.710;23.388;2023-05-27T05:48:39;95657.56;;;14.16;86.10
79075;BME280;68476;42.710;23.388;2023-05-27T05:51:05;95657.56;;;14.16;84.93
79075;BME280;68476;42.710;23.388;2023-05-27T05:53:30;95664.38;;;14.13;84.34
79075;BME280;68476;42.710;23.388;2023-05-27T05:55:57;95654.41;;;14.07;84.31
79075;BME280;68476;42.710;23.388;2023-05-27T05:58:22;95660.72;;;14.08;85.28
79075;BME280;68476;42.710;23.388;2023-05-27T06:00:47;95657.16;;;14.07;84.57
79075;BME280;68476;42.710;23.388;2023-05-27T06:03:13;95663.31;;;14.14;84.13
79075;BME280;68476;42.710;23.388;2023-05-27T06:05:38;95664.22;;;14.20;84.47
79075;BME280;68476;42.710;23.388;2023-05-27T06:08:04;95659.56;;;14.21;84.11
79075;BME280;68476;42.710;23.388;2023-05-27T06:10:29;95668.78;;;14.14;84.56
79075;BME280;68476;42.710;23.388;2023-05-27T06:12:54;95665.47;;;14.12;84.37
79075;BME280;68476;42.710;23.388;2023-05-27T06:15:20;95663.63;;;14.35;84.24
79075;BME280;68476;42.710;23.388;2023-05-27T06:17:45;95666.78;;;14.44;84.03
79075;BME280;68476;42.710;23.388;2023-05-27T06:20:13;95666.03;;;14.48;84.47
79075;BME280;68476;42.710;23.388;2023-05-27T06:22:38;95665.53;;;14.69;83.55
79075;BME280;68476;42.710;23.388;2023-05-27T06:25:04;95669.63;;;14.88;83.17
79075;BME280;68476;42.710;23.388;2023-05-27T06:27:30;95672.47;;;14.76;83.64
79075;BME280;68476;42.710;23.388;2023-05-27T06:29:55;95674.59;;;14.91;82.10
79075;BME280;68476;42.710;23.388;2023-05-27T06:32:21;95680.16;;;14.97;81.90
79075;BME280;68476;42.710;23.388;2023-05-27T06:34:47;95678.19;;;15.14;81.65
79075;BME280;68476;42.710;23.388;2023-05-27T06:37:12;95686.84;;;15.06;81.66
79075;BME280;68476;42.710;23.388;2023-05-27T06:39:38;95684.50;;;15.37;81.38
79075;BME280;68476;42.710;23.388;2023-05-27T06:42:03;95690.09;;;15.25;80.86
79075;BME280;68476;42.710;23.388;2023-05-27T06:44:29;95695.28;;;15.21;81.60
79075;BME280;68476;42.710;23.388;2023-05-27T06:46:54;95691.19;;;15.46;80.70
79075;BME280;68476;42.710;23.388;2023-05-27T06:49:19;95689.72;;;15.61;80.39
79075;BME280;68476;42.710;23.388;2023-05-27T06:51:45;95688.75;;;15.99;78.72
79075;BME280;68476;42.710;23.388;2023-05-27T06:54:10;95692.84;;;16.29;78.15
79075;BME280;68476;42.710;23.388;2023-05-27T06:56:37;95697.81;;;16.32;78.63
79075;BME280;68476;42.710;23.388;2023-05-27T06:59:03;95697.97;;;16.15;77.99
79075;BME280;68476;42.710;23.388;2023-05-27T07:01:28;95692.50;;;15.88;79.66
79075;BME280;68476;42.710;23.388;2023-05-27T07:03:54;95692.09;;;16.34;79.09
79075;BME280;68476;42.710;23.388;2023-05-27T07:06:19;95700.28;;;16.29;78.71
79075;BME280;68476;42.710;23.388;2023-05-27T07:08:45;95696.47;;;16.35;78.26
79075;BME280;68476;42.710;23.388;2023-05-27T07:11:10;95693.72;;;16.02;79.10
79075;BME280;68476;42.710;23.388;2023-05-27T07:13:35;95692.56;;;15.71;80.25
79075;BME280;68476;42.710;23.388;2023-05-27T07:16:01;95696.81;;;16.11;79.15
79075;BME280;68476;42.710;23.388;2023-05-27T07:18:26;95688.31;;;16.45;78.20
79075;BME280;68476;42.710;23.388;2023-05-27T07:20:51;95689.41;;;16.44;77.68
79075;BME280;68476;42.710;23.388;2023-05-27T07:23:17;95696.09;;;16.59;77.02
79075;BME280;68476;42.710;23.388;2023-05-27T07:25:42;95694.22;;;16.27;77.86
79075;BME280;68476;42.710;23.388;2023-05-27T07:28:08;95694.72;;;16.24;78.63
79075;BME280;68476;42.710;23.388;2023-05-27T07:30:33;95695.66;;;16.35;77.58
79075;BME280;68476;42.710;23.388;2023-05-27T07:32:58;95691.44;;;16.59;77.99
79075;BME280;68476;42.710;23.388;2023-05-27T07:35:24;95690.75;;;16.79;75.78
79075;BME280;68476;42.710;23.388;2023-05-27T07:37:49;95692.25;;;16.98;75.84
79075;BME280;68476;42.710;23.388;2023-05-27T07:40:15;95696.31;;;16.90;76.01
79075;BME280;68476;42.710;23.388;2023-05-27T07:42:40;95699.22;;;16.73;76.53
79075;BME280;68476;42.710;23.388;2023-05-27T07:45:06;95693.06;;;16.98;74.87
79075;BME280;68476;42.710;23.388;2023-05-27T07:47:32;95685.44;;;17.10;75.12
79075;BME280;68476;42.710;23.388;2023-05-27T07:49:57;95695.88;;;17.03;74.95
79075;BME280;68476;42.710;23.388;2023-05-27T07:52:22;95688.00;;;16.85;74.31
79075;BME280;68476;42.710;23.388;2023-05-27T07:54:48;95697.69;;;16.87;74.25
79075;BME280;68476;42.710;23.388;2023-05-27T07:57:13;95698.06;;;17.01;75.47
79075;BME280;68476;42.710;23.388;2023-05-27T07:59:41;95698.63;;;17.08;75.56
79075;BME280;68476;42.710;23.388;2023-05-27T08:02:07;95699.00;;;17.22;75.50
79075;BME280;68476;42.710;23.388;2023-05-27T08:04:32;95699.81;;;17.23;75.28
79075;BME280;68476;42.710;23.388;2023-05-27T08:06:57;95701.38;;;17.08;75.85
79075;BME280;68476;42.710;23.388;2023-05-27T08:09:23;95695.97;;;17.29;76.38
79075;BME280;68476;42.710;23.388;2023-05-27T08:11:49;95701.25;;;17.36;75.44
79075;BME280;68476;42.710;23.388;2023-05-27T08:14:15;95704.38;;;16.97;75.42
79075;BME280;68476;42.710;23.388;2023-05-27T08:16:41;95700.09;;;17.27;75.43
79075;BME280;68476;42.710;23.388;2023-05-27T08:19:07;95708.88;;;17.23;74.51
79075;BME280;68476;42.710;23.388;2023-05-27T08:21:32;95695.44;;;17.27;74.78
79075;BME280;68476;42.710;23.388;2023-05-27T08:23:57;95708.78;;;17.66;73.76
79075;BME280;68476;42.710;23.388;2023-05-27T08:26:23;95705.47;;;17.64;74.34
79075;BME280;68476;42.710;23.388;2023-05-27T08:28:48;95708.50;;;17.58;74.96
79075;BME280;68476;42.710;23.388;2023-05-27T08:31:14;95705.16;;;17.50;75.84
79075;BME280;68476;42.710;23.388;2023-05-27T08:33:39;95706.75;;;17.31;76.03
79075;BME280;68476;42.710;23.388;2023-05-27T08:36:06;95704.00;;;17.31;75.72
79075;BME280;68476;42.710;23.388;2023-05-27T08:38:31;95689.63;;;17.23;76.18
79075;BME280;68476;42.710;23.388;2023-05-27T08:40:57;95711.59;;;17.13;76.53
79075;BME280;68476;42.710;23.388;2023-05-27T08:43:24;95707.38;;;16.95;77.02
79075;BME280;68476;42.710;23.388;2023-05-27T08:45:49;95702.81;;;16.73;77.16
79075;BME280;68476;42.710;23.388;2023-05-27T08:48:15;95701.81;;;16.90;77.51
79075;BME280;68476;42.710;23.388;2023-05-27T08:50:41;95704.03;;;16.93;77.56
79075;BME280;68476;42.710;23.388;2023-05-27T08:53:06;95707.41;;;17.05;77.46
79075;BME280;68476;42.710;23.388;2023-05-27T08:55:34;95705.50;;;17.06;77.89
79075;BME280;68476;42.710;23.388;2023-05-27T08:58:01;95708.41;;;16.89;78.59
79075;BME280;68476;42.710;23.388;2023-05-27T09:00:26;95707.88;;;16.92;79.37
79075;BME280;68476;42.710;23.388;2023-05-27T09:02:52;95705.50;;;17.06;78.03
79075;BME280;68476;42.710;23.388;2023-05-27T09:05:21;95699.72;;;17.02;78.38
79075;BME280;68476;42.710;23.388;2023-05-27T09:07:47;95693.53;;;17.33;76.78
79075;BME280;68476;42.710;23.388;2023-05-27T09:10:13;95687.72;;;17.29;76.05
79075;BME280;68476;42.710;23.388;2023-05-27T09:12:45;95689.88;;;17.17;77.99
79075;BME280;68476;42.710;23.388;2023-05-27T09:15:11;95696.00;;;17.34;77.45
79075;BME280;68476;42.710;23.388;2023-05-27T09:17:41;95687.75;;;17.34;75.85
79075;BME280;68476;42.710;23.388;2023-05-27T09:20:08;95686.16;;;17.54;75.43
79075;BME280;68476;42.710;23.388;2023-05-27T09:22:33;95694.22;;;17.76;75.42
79075;BME280;68476;42.710;23.388;2023-05-27T09:24:59;95689.00;;;17.75;73.91
79075;BME280;68476;42.710;23.388;2023-05-27T09:27:31;95690.44;;;18.08;73.42
79075;BME280;68476;42.710;23.388;2023-05-27T09:29:58;95685.44;;;17.90;73.46
79075;BME280;68476;42.710;23.388;2023-05-27T09:32:28;95684.66;;;18.36;71.23
79075;BME280;68476;42.710;23.388;2023-05-27T09:34:56;95682.72;;;18.57;70.27
79075;BME280;68476;42.710;23.388;2023-05-27T09:37:29;95683.00;;;18.50;70.91
79075;BME280;68476;42.710;23.388;2023-05-27T09:40:11;95679.09;;;18.82;68.80
79075;BME280;68476;42.710;23.388;2023-05-27T09:42:50;95675.22;;;18.93;68.50
79075;BME280;68476;42.710;23.388;2023-05-27T09:45:20;95670.00;;;18.66;67.56
79075;BME280;68476;42.710;23.388;2023-05-27T09:47:50;95673.31;;;18.78;68.02
79075;BME280;68476;42.710;23.388;2023-05-27T09:50:16;95673.06;;;19.61;66.59
79075;BME280;68476;42.710;23.388;2023-05-27T09:52:45;95673.53;;;19.79;64.18
79075;BME280;68476;42.710;23.388;2023-05-27T09:55:14;95668.66;;;20.45;61.60
79075;BME280;68476;42.710;23.388;2023-05-27T09:57:39;95672.72;;;20.18;60.61
79075;BME280;68476;42.710;23.388;2023-05-27T10:00:10;95658.84;;;21.17;60.96
79075;BME280;68476;42.710;23.388;2023-05-27T10:02:42;95664.44;;;20.87;59.73
79075;BME280;68476;42.710;23.388;2023-05-27T10:05:12;95662.59;;;22.65;51.33
79075;BME280;68476;42.710;23.388;2023-05-27T10:07:42;95649.09;;;23.05;49.59
79075;BME280;68476;42.710;23.388;2023-05-27T10:10:10;95653.03;;;22.57;52.35
79075;BME280;68476;42.710;23.388;2023-05-27T10:12:37;95654.44;;;22.55;53.82
79075;BME280;68476;42.710;23.388;2023-05-27T10:15:04;95657.81;;;22.85;53.74
79075;BME280;68476;42.710;23.388;2023-05-27T10:17:46;95652.13;;;22.62;53.08
79075;BME280;68476;42.710;23.388;2023-05-27T10:20:12;95650.66;;;22.31;53.51
79075;BME280;68476;42.710;23.388;2023-05-27T10:22:46;95653.72;;;23.10;51.82
79075;BME280;68476;42.710;23.388;2023-05-27T10:25:12;95657.22;;;23.02;50.83
79075;BME280;68476;42.710;23.388;2023-05-27T10:27:43;95648.69;;;22.13;51.26
79075;BME280;68476;42.710;23.388;2023-05-27T10:30:09;95650.25;;;23.74;49.29
79075;BME280;68476;42.710;23.388;2023-05-27T10:32:43;95636.84;;;22.92;50.84
79075;BME280;68476;42.710;23.388;2023-05-27T10:35:08;95644.38;;;22.07;51.56
79075;BME280;68476;42.710;23.388;2023-05-27T10:37:34;95634.00;;;22.31;52.11
79075;BME280;68476;42.710;23.388;2023-05-27T10:39:59;95634.97;;;21.64;54.11
79075;BME280;68476;42.710;23.388;2023-05-27T10:42:26;95628.47;;;21.31;55.83
79075;BME280;68476;42.710;23.388;2023-05-27T10:45:10;95635.41;;;20.50;56.44
79075;BME280;68476;42.710;23.388;2023-05-27T10:50:14;95631.91;;;20.39;59.05
79075;BME280;68476;42.710;23.388;2023-05-27T10:52:41;95620.16;;;20.82;57.62
79075;BME280;68476;42.710;23.388;2023-05-27T10:55:07;95633.13;;;19.83;59.03
79075;BME280;68476;42.710;23.388;2023-05-27T10:57:33;95616.84;;;19.86;58.35
79075;BME280;68476;42.710;23.388;2023-05-27T11:00:04;95624.25;;;19.91;59.73
79075;BME280;68476;42.710;23.388;2023-05-27T11:02:33;95625.38;;;20.25;57.60
79075;BME280;68476;42.710;23.388;2023-05-27T11:05:00;95613.84;;;21.25;55.55
79075;BME280;68476;42.710;23.388;2023-05-27T11:07:26;95613.00;;;20.76;55.77
79075;BME280;68476;42.710;23.388;2023-05-27T11:09:54;95610.44;;;21.09;53.98
79075;BME280;68476;42.710;23.388;2023-05-27T11:12:22;95603.97;;;21.62;52.98
79075;BME280;68476;42.710;23.388;2023-05-27T11:17:13;95604.63;;;23.05;49.54
79075;BME280;68476;42.710;23.388;2023-05-27T11:19:39;95607.63;;;21.58;53.56
79075;BME280;68476;42.710;23.388;2023-05-27T11:22:11;95602.34;;;22.32;51.03
79075;BME280;68476;42.710;23.388;2023-05-27T11:24:37;95590.16;;;25.85;43.49
79075;BME280;68476;42.710;23.388;2023-05-27T11:27:09;95596.91;;;23.95;47.15
79075;BME280;68476;42.710;23.388;2023-05-27T11:29:36;95589.06;;;23.18;48.22
79075;BME280;68476;42.710;23.388;2023-05-27T11:32:02;95586.59;;;23.59;47.62
79075;BME280;68476;42.710;23.388;2023-05-27T11:34:28;95590.25;;;24.41;42.67
79075;BME280;68476;42.710;23.388;2023-05-27T11:36:53;95580.06;;;25.00;41.01
79075;BME280;68476;42.710;23.388;2023-05-27T11:39:18;95578.00;;;27.16;38.07
79075;BME280;68476;42.710;23.388;2023-05-27T11:41:53;95574.44;;;27.88;37.11
79075;BME280;68476;42.710;23.388;2023-05-27T11:44:21;95567.66;;;26.52;38.94
79075;BME280;68476;42.710;23.388;2023-05-27T11:46:48;95568.53;;;22.91;46.54
79075;BME280;68476;42.710;23.388;2023-05-27T11:49:15;95573.84;;;23.44;44.95
79075;BME280;68476;42.710;23.388;2023-05-27T11:51:43;95568.72;;;23.09;45.64
79075;BME280;68476;42.710;23.388;2023-05-27T11:56:45;95561.06;;;22.45;48.44
79075;BME280;68476;42.710;23.388;2023-05-27T11:59:11;95566.22;;;22.93;47.92
79075;BME280;68476;42.710;23.388;2023-05-27T12:01:36;95562.13;;;23.05;47.53
79075;BME280;68476;42.710;23.388;2023-05-27T12:04:02;95550.84;;;24.57;42.20
79075;BME280;68476;42.710;23.388;2023-05-27T12:06:27;95558.56;;;23.92;44.65
79075;BME280;68476;42.710;23.388;2023-05-27T12:08:53;95554.06;;;23.45;47.01
79075;BME280;68476;42.710;23.388;2023-05-27T12:11:18;95544.94;;;22.89;47.87
79075;BME280;68476;42.710;23.388;2023-05-27T12:13:45;95545.31;;;24.11;44.19
79075;BME280;68476;42.710;23.388;2023-05-27T12:16:10;95533.34;;;25.63;40.13
79075;BME280;68476;42.710;23.388;2023-05-27T12:18:36;95535.88;;;24.75;43.20
79075;BME280;68476;42.710;23.388;2023-05-27T12:21:02;95536.22;;;24.74;42.29
79075;BME280;68476;42.710;23.388;2023-05-27T12:23:28;95529.44;;;24.35;42.71
79075;BME280;68476;42.710;23.388;2023-05-27T12:25:53;95531.06;;;23.90;43.81
79075;BME280;68476;42.710;23.388;2023-05-27T12:28:18;95521.97;;;23.11;45.96
79075;BME280;68476;42.710;23.388;2023-05-27T12:30:44;95510.72;;;26.65;38.63
79075;BME280;68476;42.710;23.388;2023-05-27T12:33:11;95513.31;;;27.69;37.75
79075;BME280;68476;42.710;23.388;2023-05-27T12:35:38;95507.53;;;27.74;35.83
79075;BME280;68476;42.710;23.388;2023-05-27T12:38:03;95498.44;;;26.57;38.07
79075;BME280;68476;42.710;23.388;2023-05-27T12:40:28;95503.75;;;27.49;37.01
79075;BME280;68476;42.710;23.388;2023-05-27T12:42:54;95491.56;;;29.25;34.75
79075;BME280;68476;42.710;23.388;2023-05-27T12:45:19;95488.66;;;28.05;34.98
79075;BME280;68476;42.710;23.388;2023-05-27T12:47:50;95484.97;;;28.71;33.58
79075;BME280;68476;42.710;23.388;2023-05-27T12:50:15;95474.84;;;27.45;35.43
79075;BME280;68476;42.710;23.388;2023-05-27T12:52:42;95477.38;;;28.59;33.12
79075;BME280;68476;42.710;23.388;2023-05-27T12:55:12;95475.63;;;24.97;40.53
79075;BME280;68476;42.710;23.388;2023-05-27T12:57:38;95477.25;;;24.18;41.74